createdAt,value
2023-05-14T00:00:31.886Z,102087.25
2023-05-14T00:02:58.611Z,102093.50
2023-05-14T00:05:25.579Z,102091.97
2023-05-14T00:07:53.743Z,102093.03
2023-05-14T00:10:22.258Z,102084.41
2023-05-14T00:12:49.012Z,102084.47
2023-05-14T00:15:15.662Z,102080.25
2023-05-14T00:17:44.202Z,102070.75
2023-05-14T00:20:12.485Z,102072.59
2023-05-14T00:22:43.394Z,102070.22
2023-05-14T00:25:10.671Z,102065.03
2023-05-14T00:27:41.946Z,102073.94
2023-05-14T00:30:08.757Z,102067.91
2023-05-14T00:32:38.076Z,102057.66
2023-05-14T00:35:04.977Z,102067.38
2023-05-14T00:37:31.813Z,102061.34
2023-05-14T00:39:58.747Z,102060.59
2023-05-14T00:42:26.705Z,102053.72
2023-05-14T00:44:53.505Z,102058.28
2023-05-14T00:47:21.321Z,102063.63
2023-05-14T00:49:48.470Z,102049.88
2023-05-14T00:52:16.821Z,102043.84
2023-05-14T00:54:44.631Z,102044.88
2023-05-14T00:57:11.282Z,102044.19
2023-05-14T00:59:40.786Z,102032.13
2023-05-14T01:02:07.616Z,102029.84
2023-05-14T01:04:35.321Z,102031.69
2023-05-14T01:07:27.857Z,102040.56
2023-05-14T01:10:01.325Z,102033.84
2023-05-14T01:12:40.981Z,102039.47
2023-05-14T01:15:31.922Z,102036.00
2023-05-14T01:18:03.616Z,102038.63
2023-05-14T01:20:30.096Z,102035.22
2023-05-14T01:22:57.312Z,102036.31
2023-05-14T01:25:23.943Z,102025.97
2023-05-14T01:28:05.833Z,102034.78
2023-05-14T01:30:40.560Z,102034.00
2023-05-14T01:33:11.417Z,102041.22
2023-05-14T01:35:38.512Z,102048.31
2023-05-14T01:38:08.817Z,102044.94
2023-05-14T01:40:37.366Z,102042.31
2023-05-14T01:43:05.042Z,102032.72
2023-05-14T01:45:35.269Z,102033.91
2023-05-14T01:48:01.907Z,102029.53
2023-05-14T01:50:28.473Z,102023.59
2023-05-14T01:52:57.032Z,102023.69
2023-05-14T01:55:24.540Z,102020.28
2023-05-14T01:57:54.408Z,102027.47
2023-05-14T02:00:24.300Z,102022.50
2023-05-14T02:02:51.401Z,102023.44
2023-05-14T02:05:18.125Z,102011.25
2023-05-14T02:07:44.785Z,102014.97
2023-05-14T02:10:11.442Z,102014.22
2023-05-14T02:12:38.258Z,102004.63
2023-05-14T02:15:05.704Z,102004.81
2023-05-14T02:17:32.259Z,102001.22
2023-05-14T02:20:00.054Z,102004.06
2023-05-14T02:22:26.753Z,102011.25
2023-05-14T02:24:54.903Z,102008.66
2023-05-14T02:27:21.959Z,102010.44
2023-05-14T02:29:50.674Z,102011.44
2023-05-14T02:32:19.407Z,102002.81
2023-05-14T02:34:46.145Z,101999.41
2023-05-14T02:37:12.644Z,102003.81
2023-05-14T02:39:39.114Z,101997.84
2023-05-14T02:42:06.890Z,101995.16
2023-05-14T02:44:33.581Z,101998.72
2023-05-14T02:47:02.078Z,101997.16
2023-05-14T02:49:28.813Z,101996.38
2023-05-14T02:51:55.448Z,101992.19
2023-05-14T02:54:22.168Z,101998.19
2023-05-14T02:56:50.649Z,101993.91
2023-05-14T02:59:17.242Z,101992.34
2023-05-14T03:01:44.171Z,101988.88
2023-05-14T03:04:11.440Z,101989.88
2023-05-14T03:06:37.987Z,101994.31
2023-05-14T03:09:04.457Z,101990.16
2023-05-14T03:11:31.184Z,101996.31
2023-05-14T03:13:57.915Z,101984.28
2023-05-14T03:16:27.646Z,101983.44
2023-05-14T03:18:54.261Z,101982.56
2023-05-14T03:21:21.237Z,101985.34
2023-05-14T03:23:47.755Z,101981.97
2023-05-14T03:26:15.052Z,101980.25
2023-05-14T03:28:41.608Z,101989.03
2023-05-14T03:31:08.372Z,101990.94
2023-05-14T03:33:34.999Z,101987.56
2023-05-14T03:36:02.738Z,101986.69
2023-05-14T03:38:29.521Z,101985.91
2023-05-14T03:40:57.626Z,101985.91
2023-05-14T03:43:24.234Z,101985.00
2023-05-14T03:45:52.745Z,101989.38
2023-05-14T03:48:21.079Z,101981.44
2023-05-14T03:50:57.003Z,101987.69
2023-05-14T03:53:25.791Z,101982.47
2023-05-14T03:55:52.460Z,101974.50
2023-05-14T03:58:19.031Z,101974.50
2023-05-14T04:00:45.635Z,101972.88
2023-05-14T04:03:13.988Z,101971.09
2023-05-14T04:05:41.460Z,101971.19
2023-05-14T04:08:08.072Z,101967.50
2023-05-14T04:10:34.664Z,101972.81
2023-05-14T04:13:01.265Z,101966.78
2023-05-14T04:15:28.351Z,101970.34
2023-05-14T04:17:54.915Z,101965.72
2023-05-14T04:20:21.482Z,101962.22
2023-05-14T04:22:50.802Z,101971.66
2023-05-14T04:25:18.618Z,101967.31
2023-05-14T04:27:45.119Z,101970.69
2023-05-14T04:30:12.152Z,101964.56
2023-05-14T04:32:39.021Z,101969.63
2023-05-14T04:35:06.502Z,101959.13
2023-05-14T04:37:33.341Z,101964.19
2023-05-14T04:39:59.991Z,101967.22
2023-05-14T04:42:26.746Z,101966.28
2023-05-14T04:44:55.798Z,101965.84
2023-05-14T04:47:22.623Z,101965.75
2023-05-14T04:49:51.024Z,101961.59
2023-05-14T04:52:18.468Z,101964.63
2023-05-14T04:54:45.297Z,101969.88
2023-05-14T04:57:12.062Z,101966.34
2023-05-14T04:59:38.642Z,101966.44
2023-05-14T05:02:05.353Z,101957.06
2023-05-14T05:04:31.909Z,101958.97
2023-05-14T05:06:58.467Z,101963.41
2023-05-14T05:09:24.923Z,101957.50
2023-05-14T05:11:51.707Z,101971.91
2023-05-14T05:14:18.860Z,101969.84
2023-05-14T05:16:45.633Z,101966.53
2023-05-14T05:19:13.299Z,101964.31
2023-05-14T05:21:41.112Z,101963.41
2023-05-14T05:24:08.584Z,101973.38
2023-05-14T05:26:36.968Z,101962.16
2023-05-14T05:29:04.396Z,101966.81
2023-05-14T05:31:31.994Z,101983.03
2023-05-14T05:34:01.693Z,101974.94
2023-05-14T05:36:28.805Z,101970.56
2023-05-14T05:38:56.361Z,101981.34
2023-05-14T05:41:24.930Z,101973.09
2023-05-14T05:43:51.521Z,101973.69
2023-05-14T05:46:19.035Z,101971.06
2023-05-14T05:48:45.685Z,101980.63
2023-05-14T05:51:12.368Z,101983.13
2023-05-14T05:53:38.933Z,101991.25
2023-05-14T05:56:06.460Z,101988.91
2023-05-14T05:58:33.421Z,101983.28
2023-05-14T06:01:00.325Z,101985.41
2023-05-14T06:03:27.195Z,101987.28
2023-05-14T06:05:53.714Z,101986.19
2023-05-14T06:08:20.312Z,101984.28
2023-05-14T06:10:47.610Z,101991.59
2023-05-14T06:13:14.667Z,101988.91
2023-05-14T06:15:41.236Z,101986.53
2023-05-14T06:18:07.848Z,101993.97
2023-05-14T06:20:34.792Z,102002.84
2023-05-14T06:23:01.307Z,101987.19
2023-05-14T06:25:28.095Z,101998.94
2023-05-14T06:27:54.598Z,102001.56
2023-05-14T06:30:21.412Z,101997.63
2023-05-14T06:32:48.430Z,102005.28
2023-05-14T06:35:15.215Z,101992.13
2023-05-14T06:37:42.024Z,102002.66
2023-05-14T06:40:09.052Z,101987.69
2023-05-14T06:42:35.616Z,101995.66
2023-05-14T06:45:02.848Z,101983.41
2023-05-14T06:47:29.595Z,101987.34
2023-05-14T06:49:59.371Z,101992.88
2023-05-14T06:52:29.903Z,101978.41
2023-05-14T06:54:57.432Z,101983.25
2023-05-14T06:57:24.737Z,101978.81
2023-05-14T06:59:51.490Z,101974.81
2023-05-14T07:02:27.053Z,101969.19
2023-05-14T07:04:53.600Z,101974.19
2023-05-14T07:07:23.751Z,101975.34
2023-05-14T07:09:54.399Z,101977.88
2023-05-14T07:12:20.947Z,101980.84
2023-05-14T07:14:47.490Z,101969.84
2023-05-14T07:17:14.104Z,101978.38
2023-05-14T07:19:40.884Z,101983.06
2023-05-14T07:22:07.381Z,101983.34
2023-05-14T07:24:33.906Z,101984.41
2023-05-14T07:27:01.866Z,101982.44
2023-05-14T07:29:30.255Z,101974.25
2023-05-14T07:31:56.893Z,101971.41
2023-05-14T07:34:23.602Z,101968.78
2023-05-14T07:36:51.079Z,101968.47
2023-05-14T07:39:17.872Z,101977.16
2023-05-14T07:41:44.524Z,101970.34
2023-05-14T07:44:11.167Z,101974.38
2023-05-14T07:46:37.998Z,101969.75
2023-05-14T07:49:04.668Z,101967.94
2023-05-14T07:51:31.857Z,101970.03
2023-05-14T07:54:01.265Z,101969.22
2023-05-14T07:56:27.791Z,101961.47
2023-05-14T07:58:54.747Z,101960.94
2023-05-14T08:01:21.506Z,101961.91
2023-05-14T08:03:48.188Z,101955.13
2023-05-14T08:06:16.714Z,101956.72
2023-05-14T08:08:44.283Z,101962.84
2023-05-14T08:11:11.116Z,101968.66
2023-05-14T08:13:37.732Z,101966.00
2023-05-14T08:16:05.176Z,101963.06
2023-05-14T08:18:32.078Z,101954.19
2023-05-14T08:20:59.845Z,101960.75
2023-05-14T08:23:26.997Z,101963.06
2023-05-14T08:25:53.500Z,101956.91
2023-05-14T08:28:21.486Z,101958.50
2023-05-14T08:30:48.130Z,101961.31
2023-05-14T08:33:14.824Z,101965.38
2023-05-14T08:35:41.479Z,101955.47
2023-05-14T08:38:08.000Z,101954.16
2023-05-14T08:40:35.271Z,101960.81
2023-05-14T08:43:02.481Z,101954.41
2023-05-14T08:45:34.368Z,101953.19
2023-05-14T08:48:02.425Z,101952.28
2023-05-14T08:50:32.679Z,101950.44
2023-05-14T08:52:59.288Z,101933.75
2023-05-14T08:55:27.286Z,101943.34
2023-05-14T08:57:54.310Z,101941.91
2023-05-14T09:00:21.075Z,101940.41
2023-05-14T09:02:50.864Z,101943.94
2023-05-14T09:05:21.499Z,101941.25
2023-05-14T09:07:48.330Z,101936.19
2023-05-14T09:10:16.143Z,101934.75
2023-05-14T09:12:42.939Z,101931.41
2023-05-14T09:15:10.506Z,101928.53
2023-05-14T09:17:37.741Z,101928.00
2023-05-14T09:20:06.982Z,101926.56
2023-05-14T09:22:34.865Z,101922.47
2023-05-14T09:25:07.104Z,101921.00
2023-05-14T09:27:34.371Z,101917.91
2023-05-14T09:30:13.403Z,101911.53
2023-05-14T09:32:41.468Z,101910.91
2023-05-14T09:35:17.638Z,101907.94
2023-05-14T09:37:49.310Z,101915.63
2023-05-14T09:40:17.885Z,101912.72
2023-05-14T09:42:44.878Z,101905.50
2023-05-14T09:45:14.216Z,101908.63
2023-05-14T09:47:41.711Z,101908.41
2023-05-14T09:50:09.509Z,101902.72
2023-05-14T09:52:36.666Z,101901.28
2023-05-14T09:55:03.387Z,101898.09
2023-05-14T09:57:30.247Z,101905.50
2023-05-14T09:59:56.803Z,101898.19
2023-05-14T10:02:25.155Z,101904.88
2023-05-14T10:04:58.182Z,101900.09
2023-05-14T10:07:31.619Z,101890.91
2023-05-14T10:10:02.667Z,101885.94
2023-05-14T10:12:34.714Z,101892.63
2023-05-14T10:15:05.051Z,101895.03
2023-05-14T10:17:36.716Z,101883.88
2023-05-14T10:20:06.048Z,101891.66
2023-05-14T10:22:36.025Z,101884.00
2023-05-14T10:25:04.042Z,101878.72
2023-05-14T10:27:31.666Z,101878.28
2023-05-14T10:29:58.699Z,101875.31
2023-05-14T10:32:26.433Z,101877.34
2023-05-14T10:34:54.660Z,101873.63
2023-05-14T10:37:23.773Z,101876.06
2023-05-14T10:39:52.641Z,101879.19
2023-05-14T10:42:35.457Z,101869.25
2023-05-14T10:45:09.725Z,101867.63
2023-05-14T10:50:43.955Z,101858.94
2023-05-14T10:53:22.414Z,101855.97
2023-05-14T10:55:54.766Z,101849.16
2023-05-14T10:58:25.540Z,101856.69
2023-05-14T11:00:54.905Z,101846.44
2023-05-14T11:10:18.390Z,101845.09
2023-05-14T11:12:50.466Z,101842.81
2023-05-14T11:15:46.417Z,101836.50
2023-05-14T11:18:23.672Z,101842.69
2023-05-14T11:21:45.802Z,101837.19
2023-05-14T11:24:16.845Z,101834.94
2023-05-14T11:27:01.064Z,101840.22
2023-05-14T11:29:57.020Z,101829.63
2023-05-14T11:32:28.327Z,101826.97
2023-05-14T11:35:03.069Z,101819.00
2023-05-14T11:37:54.726Z,101812.25
2023-05-14T11:40:46.560Z,101809.19
2023-05-14T11:46:28.377Z,101812.53
2023-05-14T11:57:36.925Z,101807.88
2023-05-14T12:00:10.128Z,101805.75
2023-05-14T12:08:24.401Z,101791.25
2023-05-14T12:10:56.584Z,101798.00
2023-05-14T12:13:36.839Z,101788.13
2023-05-14T12:16:04.300Z,101789.09
2023-05-14T12:27:55.994Z,101776.44
2023-05-14T12:30:23.264Z,101774.03
2023-05-14T12:32:55.600Z,101776.88
2023-05-14T12:35:23.230Z,101780.19
2023-05-14T12:37:53.181Z,101770.03
2023-05-14T12:40:22.769Z,101765.97
2023-05-14T12:42:51.192Z,101767.38
2023-05-14T12:45:18.052Z,101769.56
2023-05-14T12:47:46.837Z,101764.97
2023-05-14T12:50:13.901Z,101759.94
2023-05-14T12:52:43.767Z,101751.78
2023-05-14T12:55:10.852Z,101757.41
2023-05-14T12:57:39.684Z,101756.59
2023-05-14T13:00:08.484Z,101748.88
2023-05-14T13:02:42.627Z,101744.44
2023-05-14T13:05:10.877Z,101745.59
2023-05-14T13:07:40.142Z,101749.50
2023-05-14T13:10:10.089Z,101750.91
2023-05-14T13:12:39.072Z,101737.91
2023-05-14T13:15:06.492Z,101743.47
2023-05-14T13:17:33.561Z,101733.84
2023-05-14T13:20:00.069Z,101741.47
2023-05-14T13:22:30.082Z,101738.06
2023-05-14T13:25:01.282Z,101742.09
2023-05-14T13:27:28.594Z,101747.28
2023-05-14T13:29:55.630Z,101731.59
2023-05-14T13:32:22.656Z,101728.06
2023-05-14T13:34:51.191Z,101729.75
2023-05-14T13:37:18.318Z,101730.66
2023-05-14T13:39:45.016Z,101723.19
2023-05-14T13:42:15.159Z,101724.25
2023-05-14T13:44:42.132Z,101719.53
2023-05-14T13:47:21.094Z,101722.50
2023-05-14T13:49:51.883Z,101721.22
2023-05-14T13:52:23.371Z,101710.31
2023-05-14T13:54:53.406Z,101710.31
2023-05-14T13:57:22.400Z,101714.06
2023-05-14T13:59:54.171Z,101711.41
2023-05-14T14:02:21.359Z,101710.16
2023-05-14T14:04:54.607Z,101706.47
2023-05-14T14:07:21.393Z,101705.63
2023-05-14T14:09:52.652Z,101700.72
2023-05-14T14:12:22.999Z,101696.50
2023-05-14T14:14:52.976Z,101693.63
2023-05-14T14:17:25.716Z,101700.59
2023-05-14T14:19:52.496Z,101695.03
2023-05-14T14:22:20.630Z,101692.13
2023-05-14T14:24:47.889Z,101692.59
2023-05-14T14:27:16.297Z,101690.47
2023-05-14T14:29:43.650Z,101688.69
2023-05-14T14:32:11.453Z,101691.06
2023-05-14T14:34:38.031Z,101688.38
2023-05-14T14:37:08.455Z,101687.25
2023-05-14T14:39:35.494Z,101686.19
2023-05-14T14:42:05.767Z,101682.09
2023-05-14T14:44:35.665Z,101678.38
2023-05-14T14:47:10.015Z,101684.06
2023-05-14T14:49:37.464Z,101685.06
2023-05-14T14:52:04.361Z,101683.84
2023-05-14T14:54:31.350Z,101680.41
2023-05-14T14:56:58.192Z,101678.06
2023-05-14T14:59:25.977Z,101680.94
2023-05-14T15:01:53.344Z,101683.78
2023-05-14T15:04:21.275Z,101682.41
2023-05-14T15:06:53.697Z,101680.94
2023-05-14T15:09:23.973Z,101679.13
2023-05-14T15:11:52.155Z,101678.97
2023-05-14T15:14:25.062Z,101677.03
2023-05-14T15:16:59.323Z,101680.41
2023-05-14T15:19:28.674Z,101677.50
2023-05-14T15:21:55.370Z,101673.78
2023-05-14T15:24:26.544Z,101676.25
2023-05-14T15:26:58.106Z,101668.28
2023-05-14T15:29:26.411Z,101665.63
2023-05-14T15:31:53.910Z,101669.81
2023-05-14T15:34:21.870Z,101661.06
2023-05-14T15:36:50.465Z,101664.97
2023-05-14T15:39:18.471Z,101658.31
2023-05-14T15:41:45.670Z,101660.72
2023-05-14T15:44:12.689Z,101656.22
2023-05-14T15:46:41.670Z,101655.09
2023-05-14T15:49:11.069Z,101646.84
2023-05-14T15:51:38.873Z,101650.09
2023-05-14T15:54:07.166Z,101648.03
2023-05-14T15:56:35.079Z,101644.38
2023-05-14T15:59:02.673Z,101640.63
2023-05-14T16:01:29.747Z,101643.44
2023-05-14T16:03:56.680Z,101653.09
2023-05-14T16:06:23.588Z,101650.44
2023-05-14T16:08:51.998Z,101656.34
2023-05-14T16:11:21.829Z,101649.38
2023-05-14T16:13:48.850Z,101655.97
2023-05-14T16:16:16.988Z,101654.44
2023-05-14T16:18:44.290Z,101660.72
2023-05-14T16:21:12.350Z,101661.28
2023-05-14T16:23:39.028Z,101660.88
2023-05-14T16:26:07.234Z,101658.50
2023-05-14T16:28:36.601Z,101657.38
2023-05-14T16:31:03.886Z,101656.13
2023-05-14T16:33:30.771Z,101653.78
2023-05-14T16:35:57.426Z,101652.53
2023-05-14T16:38:24.236Z,101658.84
2023-05-14T16:40:55.526Z,101651.81
2023-05-14T16:43:26.073Z,101658.56
2023-05-14T16:45:54.293Z,101660.22
2023-05-14T16:48:24.040Z,101654.34
2023-05-14T16:50:56.537Z,101666.09
2023-05-14T16:53:23.099Z,101667.09
2023-05-14T16:55:51.559Z,101661.38
2023-05-14T16:58:18.768Z,101669.44
2023-05-14T17:00:46.780Z,101677.84
2023-05-14T17:03:15.979Z,101670.88
2023-05-14T17:05:45.047Z,101677.97
2023-05-14T17:08:11.795Z,101686.25
2023-05-14T17:10:38.872Z,101675.88
2023-05-14T17:13:08.530Z,101680.06
2023-05-14T17:15:36.455Z,101680.88
2023-05-14T17:18:03.509Z,101676.63
2023-05-14T17:20:31.170Z,101674.59
2023-05-14T17:22:58.754Z,101677.63
2023-05-14T17:25:26.644Z,101673.53
2023-05-14T17:27:54.829Z,101685.41
2023-05-14T17:30:26.637Z,101676.75
2023-05-14T17:32:54.075Z,101679.47
2023-05-14T17:35:20.881Z,101676.66
2023-05-14T17:37:49.674Z,101683.19
2023-05-14T17:40:18.089Z,101676.53
2023-05-14T17:42:47.438Z,101682.56
2023-05-14T17:45:14.501Z,101673.09
2023-05-14T17:47:41.091Z,101663.00
2023-05-14T17:50:09.147Z,101673.97
2023-05-14T17:52:35.837Z,101684.13
2023-05-14T17:55:03.772Z,101686.81
2023-05-14T17:57:31.099Z,101684.22
2023-05-14T17:59:57.649Z,101690.28
2023-05-14T18:02:24.232Z,101698.63
2023-05-14T18:04:50.755Z,101702.09
2023-05-14T18:07:18.748Z,101698.53
2023-05-14T18:09:45.388Z,101700.97
2023-05-14T18:12:17.681Z,101701.69
2023-05-14T18:14:45.564Z,101702.44
2023-05-14T18:17:14.446Z,101708.06
2023-05-14T18:19:41.062Z,101712.31
2023-05-14T18:22:07.636Z,101707.72
2023-05-14T18:24:34.222Z,101712.31
2023-05-14T18:27:00.902Z,101712.66
2023-05-14T18:29:27.491Z,101715.69
2023-05-14T18:31:54.765Z,101713.75
2023-05-14T18:34:21.431Z,101714.56
2023-05-14T18:36:48.235Z,101719.25
2023-05-14T18:39:15.092Z,101718.91
2023-05-14T18:41:41.600Z,101726.91
2023-05-14T18:44:09.550Z,101716.31
2023-05-14T18:46:36.164Z,101719.63
2023-05-14T18:49:02.872Z,101730.78
2023-05-14T18:51:29.668Z,101731.91
2023-05-14T18:53:56.491Z,101727.81
2023-05-14T18:56:23.174Z,101738.06
2023-05-14T18:58:49.613Z,101734.13
2023-05-14T19:01:16.297Z,101736.53
2023-05-14T19:03:43.132Z,101733.72
2023-05-14T19:06:11.255Z,101740.50
2023-05-14T19:08:38.251Z,101741.06
2023-05-14T19:11:04.978Z,101742.13
2023-05-14T19:13:31.877Z,101734.84
2023-05-14T19:15:58.537Z,101734.56
2023-05-14T19:18:25.389Z,101748.41
2023-05-14T19:20:52.003Z,101740.00
2023-05-14T19:23:18.576Z,101742.84
2023-05-14T19:25:45.304Z,101733.88
2023-05-14T19:28:11.879Z,101738.81
2023-05-14T19:30:38.649Z,101739.03
2023-05-14T19:33:05.355Z,101734.72
2023-05-14T19:35:32.032Z,101736.94
2023-05-14T19:37:58.685Z,101736.28
2023-05-14T19:40:25.328Z,101738.50
2023-05-14T19:42:51.756Z,101741.56
2023-05-14T19:45:20.924Z,101735.22
2023-05-14T19:47:47.559Z,101738.28
2023-05-14T19:50:14.693Z,101737.19
2023-05-14T19:52:41.279Z,101737.53
2023-05-14T19:55:08.068Z,101729.53
2023-05-14T19:57:34.898Z,101737.00
2023-05-14T20:00:03.417Z,101740.97
2023-05-14T20:02:30.075Z,101738.44
2023-05-14T20:04:56.732Z,101741.41
2023-05-14T20:07:25.005Z,101735.16
2023-05-14T20:09:52.136Z,101736.97
2023-05-14T20:12:18.657Z,101740.00
2023-05-14T20:14:49.812Z,101732.94
2023-05-14T20:17:16.607Z,101734.94
2023-05-14T20:19:45.159Z,101736.97
2023-05-14T20:22:16.714Z,101733.63
2023-05-14T20:24:45.028Z,101733.06
2023-05-14T20:27:12.348Z,101728.84
2023-05-14T20:29:40.782Z,101728.59
2023-05-14T20:32:08.021Z,101722.78
2023-05-14T20:34:34.544Z,101717.44
2023-05-14T20:37:01.590Z,101725.78
2023-05-14T20:39:28.379Z,101717.81
2023-05-14T20:41:55.079Z,101724.00
2023-05-14T20:44:21.600Z,101720.84
2023-05-14T20:46:51.517Z,101716.59
2023-05-14T20:49:18.397Z,101714.38
2023-05-14T20:51:45.060Z,101726.22
2023-05-14T20:54:11.732Z,101718.34
2023-05-14T20:56:38.292Z,101708.66
2023-05-14T20:59:05.735Z,101708.84
2023-05-14T21:01:32.386Z,101708.94
2023-05-14T21:03:59.219Z,101714.88
2023-05-14T21:06:26.199Z,101709.59
2023-05-14T21:08:52.981Z,101705.38
2023-05-14T21:11:22.152Z,101697.66
2023-05-14T21:13:50.628Z,101696.94
2023-05-14T21:16:17.675Z,101705.88
2023-05-14T21:18:45.008Z,101711.97
2023-05-14T21:21:27.551Z,101705.09
2023-05-14T21:24:00.123Z,101710.13
2023-05-14T21:26:47.174Z,101714.72
2023-05-14T21:29:17.656Z,101718.47
2023-05-14T21:31:45.801Z,101715.13
2023-05-14T21:34:15.180Z,101713.69
2023-05-14T21:36:47.573Z,101715.50
2023-05-14T21:39:15.097Z,101713.59
2023-05-14T21:41:47.084Z,101710.22
2023-05-14T21:44:19.592Z,101700.75
2023-05-14T21:46:47.430Z,101699.13
2023-05-14T21:49:14.215Z,101695.00
2023-05-14T21:51:45.970Z,101695.00
2023-05-14T21:54:14.236Z,101689.94
2023-05-14T21:56:40.860Z,101685.72
2023-05-14T21:59:11.117Z,101686.78
2023-05-14T22:01:50.492Z,101694.00
2023-05-14T22:04:33.564Z,101690.72
2023-05-14T22:07:00.592Z,101697.34
2023-05-14T22:09:27.392Z,101688.97
2023-05-14T22:11:56.085Z,101689.81
2023-05-14T22:14:22.610Z,101690.94
2023-05-14T22:16:51.953Z,101683.25
2023-05-14T22:19:20.639Z,101681.47
2023-05-14T22:21:47.578Z,101680.63
2023-05-14T22:24:14.779Z,101680.81
2023-05-14T22:26:44.545Z,101677.41
2023-05-14T22:29:11.086Z,101687.19
2023-05-14T22:31:37.848Z,101688.31
2023-05-14T22:34:16.609Z,101676.28
2023-05-14T22:36:45.175Z,101678.84
2023-05-14T22:39:13.466Z,101668.50
2023-05-14T22:41:51.791Z,101671.97
2023-05-14T22:44:18.391Z,101665.75
2023-05-14T22:46:49.659Z,101665.03
2023-05-14T22:49:19.089Z,101664.09
2023-05-14T22:51:57.768Z,101659.84
2023-05-14T22:54:27.464Z,101660.91
2023-05-14T22:56:54.091Z,101655.84
2023-05-14T22:59:36.014Z,101656.00
2023-05-14T23:02:20.737Z,101658.63
2023-05-14T23:04:47.625Z,101649.25
2023-05-14T23:07:14.688Z,101645.88
2023-05-14T23:09:41.358Z,101644.91
2023-05-14T23:12:09.569Z,101644.91
2023-05-14T23:14:38.175Z,101645.88
2023-05-14T23:17:05.248Z,101645.09
2023-05-14T23:19:45.289Z,101647.72
2023-05-14T23:22:12.791Z,101652.16
2023-05-14T23:24:39.322Z,101642.84
2023-05-14T23:27:07.233Z,101642.94
2023-05-14T23:29:34.120Z,101640.31
2023-05-14T23:32:00.739Z,101630.66
2023-05-14T23:34:27.333Z,101634.22
2023-05-14T23:36:53.987Z,101631.00
2023-05-14T23:39:22.954Z,101627.91
2023-05-14T23:41:50.553Z,101624.06
2023-05-14T23:44:17.070Z,101612.72
2023-05-14T23:46:45.968Z,101620.69
2023-05-14T23:49:12.982Z,101606.06
2023-05-14T23:51:39.471Z,101600.97
2023-05-14T23:54:06.365Z,101597.50
2023-05-14T23:56:33.695Z,101591.59
2023-05-14T23:59:00.325Z,101596.97
